createdAt,value
2019-02-28T00:02:39.749Z,33.51
2019-02-28T00:05:43.265Z,33.50
2019-02-28T00:08:46.754Z,33.50
2019-02-28T00:11:50.314Z,33.50
2019-02-28T00:14:53.899Z,33.50
2019-02-28T00:17:57.470Z,33.51
2019-02-28T00:21:06.078Z,33.48
2019-02-28T00:24:06.265Z,33.50
2019-02-28T00:27:09.838Z,33.49
2019-02-28T00:30:13.349Z,33.47
2019-02-28T00:33:16.800Z,33.49
2019-02-28T00:36:20.325Z,33.48
2019-02-28T00:39:23.828Z,33.49
2019-02-28T00:42:27.354Z,33.48
2019-02-28T00:45:30.817Z,33.48
2019-02-28T00:48:35.362Z,33.49
2019-02-28T00:51:38.842Z,33.49
2019-02-28T00:54:44.478Z,33.48
2019-02-28T00:57:47.987Z,33.47
2019-02-28T01:00:51.410Z,33.47
2019-02-28T01:03:58.045Z,33.46
2019-02-28T01:07:00.184Z,33.45
2019-02-28T01:10:05.200Z,33.49
2019-02-28T01:13:08.673Z,33.48
2019-02-28T01:16:12.152Z,33.45
2019-02-28T01:19:15.688Z,33.46
2019-02-28T01:22:19.163Z,33.44
2019-02-28T01:25:22.667Z,33.48
2019-02-28T01:28:26.963Z,33.43
2019-02-28T01:31:31.388Z,33.48
2019-02-28T01:34:35.038Z,33.46
2019-02-28T01:37:38.522Z,33.47
2019-02-28T01:40:42.020Z,33.48
2019-02-28T01:43:45.528Z,33.49
2019-02-28T01:46:49.370Z,33.47
2019-02-28T01:49:53.990Z,33.46
2019-02-28T01:52:58.423Z,33.48
2019-02-28T01:56:02.423Z,33.47
2019-02-28T01:59:06.644Z,33.46
2019-02-28T02:02:10.109Z,33.47
2019-02-28T02:05:17.016Z,33.48
2019-02-28T02:08:18.836Z,33.44
2019-02-28T02:11:22.347Z,33.43
2019-02-28T02:14:25.890Z,33.46
2019-02-28T02:17:29.372Z,33.43
2019-02-28T02:20:34.719Z,33.42
2019-02-28T02:23:38.197Z,33.43
2019-02-28T02:26:42.278Z,33.46
2019-02-28T02:29:46.860Z,33.42
2019-02-28T02:32:50.366Z,33.45
2019-02-28T02:35:53.878Z,33.45
2019-02-28T02:38:58.375Z,33.46
2019-02-28T02:42:01.873Z,33.44
2019-02-28T02:45:06.676Z,33.43
2019-02-28T02:48:10.314Z,33.45
2019-02-28T02:51:13.811Z,33.45
2019-02-28T02:54:19.661Z,33.43
2019-02-28T02:57:22.556Z,33.45
2019-02-28T03:00:26.052Z,33.45
2019-02-28T03:03:29.570Z,33.46
2019-02-28T03:06:33.072Z,33.45
2019-02-28T03:09:36.549Z,33.42
2019-02-28T03:12:40.051Z,33.40
2019-02-28T03:15:43.551Z,33.42
2019-02-28T03:18:47.311Z,33.42
2019-02-28T03:21:52.655Z,33.47
2019-02-28T03:24:55.992Z,33.47
2019-02-28T03:27:59.542Z,33.45
2019-02-28T03:31:11.547Z,33.47
2019-02-28T03:34:13.245Z,33.45
2019-02-28T03:37:14.512Z,33.41
2019-02-28T03:40:17.960Z,33.40
2019-02-28T03:43:21.686Z,33.42
2019-02-28T03:46:25.218Z,33.42
2019-02-28T03:49:28.740Z,33.44
2019-02-28T03:52:32.215Z,33.45
2019-02-28T03:55:40.130Z,33.42
2019-02-28T03:58:43.190Z,33.41
2019-02-28T04:01:46.821Z,33.42
2019-02-28T04:04:50.532Z,33.43
2019-02-28T04:07:55.034Z,33.42
2019-02-28T04:10:59.803Z,33.42
2019-02-28T04:14:04.321Z,33.40
2019-02-28T04:17:08.833Z,33.43
2019-02-28T04:20:12.323Z,33.44
2019-02-28T04:23:15.827Z,33.45
2019-02-28T04:26:19.312Z,33.47
2019-02-28T04:29:29.835Z,33.44
2019-02-28T04:32:28.074Z,33.42
2019-02-28T04:35:31.692Z,33.42
2019-02-28T04:38:35.188Z,33.42
2019-02-28T04:41:38.616Z,33.42
2019-02-28T04:44:42.246Z,33.41
2019-02-28T04:47:45.890Z,33.43
2019-02-28T04:50:49.378Z,33.42
2019-02-28T04:53:53.909Z,33.42
2019-02-28T04:56:57.399Z,33.42
2019-02-28T05:00:05.810Z,33.43
2019-02-28T05:03:08.288Z,33.43
2019-02-28T05:06:11.798Z,33.42
2019-02-28T05:09:17.343Z,33.42
2019-02-28T05:12:20.856Z,33.41
2019-02-28T05:15:25.373Z,33.42
2019-02-28T05:18:28.892Z,33.41
2019-02-28T05:21:33.415Z,33.42
2019-02-28T05:24:39.515Z,33.42
2019-02-28T05:27:42.235Z,33.41
2019-02-28T05:30:45.736Z,33.42
2019-02-28T05:33:50.281Z,33.45
2019-02-28T05:36:53.768Z,33.42
2019-02-28T05:39:57.213Z,33.41
2019-02-28T05:43:00.666Z,33.43
2019-02-28T05:46:04.278Z,33.43
2019-02-28T05:49:08.703Z,33.43
2019-02-28T05:52:12.706Z,33.41
2019-02-28T05:55:16.217Z,33.43
2019-02-28T05:58:20.905Z,33.38
2019-02-28T06:01:24.428Z,33.43
2019-02-28T06:04:27.944Z,33.43
2019-02-28T06:07:31.437Z,33.42
2019-02-28T06:10:34.892Z,33.41
2019-02-28T06:13:38.477Z,33.37
2019-02-28T06:16:46.503Z,33.41
2019-02-28T06:19:47.119Z,33.41
2019-02-28T06:22:50.735Z,33.42
2019-02-28T06:25:55.732Z,33.39
2019-02-28T06:29:04.633Z,33.41
2019-02-28T06:32:04.495Z,33.40
2019-02-28T06:35:07.972Z,33.39
2019-02-28T06:38:11.457Z,33.36
2019-02-28T06:41:16.117Z,33.36
2019-02-28T06:44:19.607Z,33.35
2019-02-28T06:47:23.130Z,33.37
2019-02-28T06:50:26.612Z,33.37
2019-02-28T06:53:33.780Z,33.35
2019-02-28T06:56:37.087Z,33.33
2019-02-28T06:59:40.599Z,33.36
2019-02-28T07:02:47.160Z,33.30
2019-02-28T07:05:50.656Z,33.34
2019-02-28T07:08:54.144Z,33.30
2019-02-28T07:11:57.572Z,33.33
2019-02-28T07:15:01.162Z,33.27
2019-02-28T07:18:04.645Z,33.32
2019-02-28T07:21:09.186Z,33.30
2019-02-28T07:24:12.623Z,33.33
2019-02-28T07:27:16.126Z,33.64
2019-02-28T07:30:20.728Z,33.82
2019-02-28T07:33:24.180Z,33.95
2019-02-28T07:36:27.721Z,34.14
2019-02-28T07:39:31.226Z,34.14
2019-02-28T07:42:37.594Z,34.16
2019-02-28T07:45:40.282Z,34.18
2019-02-28T07:48:44.819Z,34.14
2019-02-28T07:51:48.287Z,34.14
2019-02-28T07:54:55.514Z,34.13
2019-02-28T07:57:57.956Z,34.19
2019-02-28T08:01:01.713Z,34.21
2019-02-28T08:04:05.148Z,34.15
2019-02-28T08:07:11.452Z,34.08
2019-02-28T08:10:16.166Z,34.02
2019-02-28T08:13:21.350Z,33.96
2019-02-28T08:16:24.902Z,33.87
2019-02-28T08:19:29.414Z,33.82
2019-02-28T08:22:33.382Z,33.77
2019-02-28T08:25:39.655Z,33.65
2019-02-28T08:28:43.137Z,33.57
2019-02-28T08:31:46.709Z,33.40
2019-02-28T08:34:50.231Z,33.37
2019-02-28T08:37:57.148Z,33.33
2019-02-28T08:40:59.251Z,33.20
2019-02-28T08:44:02.788Z,33.18
2019-02-28T08:47:06.346Z,33.11
2019-02-28T08:50:23.163Z,33.09
2019-02-28T08:53:25.942Z,33.09
2019-02-28T08:56:29.449Z,32.96
2019-02-28T08:59:32.972Z,32.92
2019-02-28T09:02:36.455Z,32.86
2019-02-28T09:05:39.948Z,32.85
2019-02-28T09:08:44.540Z,32.84
2019-02-28T09:11:48.179Z,32.87
2019-02-28T09:14:55.237Z,33.41
2019-02-28T09:17:59.468Z,33.57
2019-02-28T09:21:03.192Z,33.64
2019-02-28T09:24:09.420Z,33.60
2019-02-28T09:27:12.311Z,33.61
2019-02-28T09:30:21.578Z,33.62
2019-02-28T09:33:25.206Z,33.54
2019-02-28T09:36:28.698Z,33.49
2019-02-28T09:39:32.186Z,33.44
2019-02-28T09:42:35.702Z,33.51
2019-02-28T09:45:40.169Z,33.43
2019-02-28T09:48:44.563Z,33.41
2019-02-28T09:51:48.045Z,33.47
2019-02-28T09:54:52.577Z,33.46
2019-02-28T09:57:57.490Z,33.39
2019-02-28T10:01:01.241Z,33.33
2019-02-28T10:04:04.695Z,33.33
2019-02-28T10:07:09.228Z,33.28
2019-02-28T10:10:20.848Z,33.29
2019-02-28T10:13:22.889Z,33.28
2019-02-28T10:16:26.501Z,33.28
2019-02-28T10:19:30.002Z,33.27
2019-02-28T10:22:33.499Z,33.20
2019-02-28T10:25:40.108Z,33.20
2019-02-28T10:28:42.333Z,33.11
2019-02-28T10:31:45.853Z,33.09
2019-02-28T10:34:49.351Z,33.10
2019-02-28T10:37:57.373Z,32.91
2019-02-28T10:40:58.179Z,32.99
2019-02-28T10:44:01.678Z,33.01
2019-02-28T10:47:05.168Z,33.08
2019-02-28T10:50:14.811Z,33.14
2019-02-28T10:53:18.432Z,33.04
2019-02-28T10:56:22.054Z,32.84
2019-02-28T10:59:25.541Z,32.75
2019-02-28T11:02:29.140Z,32.73
2019-02-28T11:05:34.062Z,32.62
2019-02-28T11:08:40.815Z,32.52
2019-02-28T11:11:45.642Z,32.42
2019-02-28T11:14:49.802Z,32.42
2019-02-28T11:17:53.313Z,32.36
2019-02-28T11:20:58.360Z,32.35
2019-02-28T11:24:02.751Z,32.59
2019-02-28T11:27:07.176Z,32.84
2019-02-28T11:30:12.716Z,32.82
2019-02-28T11:33:16.443Z,32.79
2019-02-28T11:36:20.040Z,32.68
2019-02-28T11:39:23.550Z,32.69
2019-02-28T11:42:28.999Z,32.62
2019-02-28T11:45:33.966Z,32.61
2019-02-28T11:48:37.551Z,32.52
2019-02-28T11:51:41.157Z,32.60
2019-02-28T11:54:45.402Z,32.54
2019-02-28T11:57:50.474Z,32.50
2019-02-28T12:00:55.011Z,32.47
2019-02-28T12:03:59.640Z,32.52
2019-02-28T12:07:03.249Z,32.38
2019-02-28T12:10:06.829Z,32.36
2019-02-28T12:13:10.443Z,32.27
2019-02-28T12:16:16.191Z,32.23
2019-02-28T12:19:19.302Z,32.18
2019-02-28T12:22:22.829Z,32.17
2019-02-28T12:25:26.380Z,32.15
2019-02-28T12:28:30.040Z,32.07
2019-02-28T12:31:35.763Z,32.15
2019-02-28T12:34:38.851Z,32.09
2019-02-28T12:37:43.379Z,32.00
2019-02-28T12:40:49.336Z,31.98
2019-02-28T12:43:52.322Z,31.98
2019-02-28T12:46:55.978Z,31.98
2019-02-28T12:49:59.429Z,31.96
2019-02-28T12:53:02.918Z,32.02
2019-02-28T12:56:06.450Z,32.18
2019-02-28T12:59:10.874Z,32.80
2019-02-28T13:02:14.456Z,32.73
2019-02-28T13:05:18.060Z,32.79
2019-02-28T13:08:21.663Z,32.74
2019-02-28T13:11:25.153Z,32.82
2019-02-28T13:14:28.650Z,32.75
2019-02-28T13:17:32.968Z,32.66
2019-02-28T13:20:36.883Z,32.65
2019-02-28T13:23:40.507Z,32.71
2019-02-28T13:26:44.193Z,32.75
2019-02-28T13:29:47.799Z,32.72
2019-02-28T13:32:51.315Z,32.68
2019-02-28T13:35:54.832Z,32.69
2019-02-28T13:38:58.414Z,32.75
2019-02-28T13:42:03.202Z,32.64
2019-02-28T13:45:13.521Z,32.50
2019-02-28T13:48:14.238Z,32.37
2019-02-28T13:51:17.852Z,32.33
2019-02-28T13:54:21.397Z,32.26
2019-02-28T13:57:25.113Z,32.29
2019-02-28T14:00:29.489Z,32.20
2019-02-28T14:03:33.097Z,32.13
2019-02-28T14:06:37.691Z,32.22
2019-02-28T14:09:41.433Z,32.51
2019-02-28T14:12:44.999Z,32.78
2019-02-28T14:15:52.496Z,32.79
2019-02-28T14:18:54.721Z,32.83
2019-02-28T14:21:58.450Z,32.81
2019-02-28T14:25:04.969Z,32.80
2019-02-28T14:28:07.590Z,32.82
2019-02-28T14:31:11.147Z,32.89
2019-02-28T14:34:15.694Z,33.03
2019-02-28T14:37:19.596Z,33.05
2019-02-28T14:40:23.874Z,33.02
2019-02-28T14:43:27.448Z,33.01
2019-02-28T14:46:31.076Z,33.01
2019-02-28T14:49:34.647Z,32.89
2019-02-28T14:52:40.194Z,32.79
2019-02-28T14:55:44.047Z,32.70
2019-02-28T14:58:47.549Z,32.66
2019-02-28T15:01:53.000Z,32.94
2019-02-28T15:04:58.276Z,33.19
2019-02-28T15:08:02.781Z,33.21
2019-02-28T15:11:10.270Z,33.17
2019-02-28T15:14:16.439Z,33.14
2019-02-28T15:17:22.172Z,33.18
2019-02-28T15:20:31.716Z,33.16
2019-02-28T15:23:34.377Z,33.18
2019-02-28T15:30:04.234Z,33.19
2019-02-28T15:33:07.842Z,33.23
2019-02-28T15:36:11.435Z,33.24
2019-02-28T15:39:17.131Z,33.27
2019-02-28T15:42:21.408Z,33.25
2019-02-28T15:45:29.019Z,33.26
2019-02-28T15:48:34.569Z,33.28
2019-02-28T15:51:37.865Z,33.27
2019-02-28T15:54:41.390Z,33.24
2019-02-28T15:57:45.897Z,33.29
2019-02-28T16:00:49.376Z,33.30
2019-02-28T16:03:53.020Z,33.31
2019-02-28T16:06:58.112Z,33.30
2019-02-28T16:10:01.997Z,33.31
2019-02-28T16:13:05.940Z,33.28
2019-02-28T16:16:09.534Z,33.31
2019-02-28T16:19:13.109Z,33.32
2019-02-28T16:22:18.198Z,33.35
2019-02-28T16:25:25.891Z,33.33
2019-02-28T16:28:29.367Z,33.38
2019-02-28T16:31:33.879Z,33.38
2019-02-28T16:34:38.763Z,33.41
2019-02-28T16:37:42.963Z,33.38
2019-02-28T16:40:46.571Z,33.48
2019-02-28T16:43:52.279Z,33.43
2019-02-28T16:46:55.390Z,33.41
2019-02-28T16:49:58.994Z,33.41
2019-02-28T16:53:02.720Z,33.42
2019-02-28T16:56:06.453Z,33.52
2019-02-28T16:59:12.071Z,33.58
2019-02-28T17:02:15.578Z,33.63
2019-02-28T17:05:19.200Z,33.65
2019-02-28T17:08:23.092Z,33.63
2019-02-28T17:11:26.703Z,33.67
2019-02-28T17:14:30.199Z,33.72
2019-02-28T17:17:55.541Z,33.55
2019-02-28T17:20:59.197Z,33.47
2019-02-28T17:24:02.814Z,33.77
2019-02-28T17:27:23.271Z,33.75
2019-02-28T17:30:45.929Z,33.80
2019-02-28T17:33:49.355Z,33.79
2019-02-28T17:36:52.860Z,33.81
2019-02-28T17:39:57.383Z,33.84
2019-02-28T17:43:00.991Z,33.82
2019-02-28T17:46:04.604Z,33.82
2019-02-28T17:49:47.212Z,33.83
2019-02-28T17:53:18.525Z,33.78
2019-02-28T17:56:47.360Z,33.82
2019-02-28T18:00:31.111Z,33.81
2019-02-28T18:04:10.771Z,33.81
2019-02-28T18:07:40.761Z,33.84
2019-02-28T18:11:30.950Z,33.84
2019-02-28T18:14:49.741Z,33.91
2019-02-28T18:18:33.339Z,33.82
2019-02-28T18:22:30.140Z,33.95
2019-02-28T18:26:13.043Z,33.90
2019-02-28T18:29:34.467Z,33.86
2019-02-28T18:32:38.080Z,33.88
2019-02-28T18:35:41.695Z,33.83
2019-02-28T18:38:45.270Z,33.88
2019-02-28T18:41:50.746Z,33.88
2019-02-28T18:44:54.115Z,33.93
2019-02-28T18:47:57.620Z,33.93
2019-02-28T18:51:01.139Z,33.93
2019-02-28T18:54:04.723Z,33.95
2019-02-28T18:57:08.446Z,33.98
2019-02-28T19:00:13.432Z,33.92
2019-02-28T19:03:16.962Z,33.73
2019-02-28T19:06:20.501Z,33.68
2019-02-28T19:09:24.634Z,33.89
2019-02-28T19:12:28.074Z,34.20
2019-02-28T19:15:31.603Z,34.20
2019-02-28T19:18:35.080Z,34.20
2019-02-28T19:21:38.612Z,34.17
2019-02-28T19:24:42.099Z,34.17
2019-02-28T19:27:45.597Z,34.15
2019-02-28T19:30:49.100Z,34.11
2019-02-28T19:33:53.612Z,34.14
2019-02-28T19:36:57.290Z,34.12
2019-02-28T19:40:00.827Z,34.14
2019-02-28T19:43:04.324Z,34.16
2019-02-28T19:46:08.747Z,34.11
2019-02-28T19:49:13.386Z,34.09
2019-02-28T19:52:16.883Z,34.06
2019-02-28T19:55:20.384Z,33.96
2019-02-28T19:58:23.889Z,34.07
2019-02-28T20:01:27.375Z,34.04
2019-02-28T20:04:30.879Z,34.07
2019-02-28T20:07:34.397Z,34.09
2019-02-28T20:10:37.905Z,34.05
2019-02-28T20:13:41.497Z,34.08
2019-02-28T20:16:45.208Z,34.10
2019-02-28T20:19:48.790Z,34.10
2019-02-28T20:22:53.310Z,34.10
2019-02-28T20:25:56.944Z,34.06
2019-02-28T20:29:01.552Z,34.00
2019-02-28T20:32:05.071Z,34.02
2019-02-28T20:35:09.701Z,34.01
2019-02-28T20:38:14.482Z,34.05
2019-02-28T20:41:18.017Z,34.06
2019-02-28T20:44:21.506Z,34.07
2019-02-28T20:47:25.013Z,33.97
2019-02-28T20:50:35.786Z,34.02
2019-02-28T20:53:39.416Z,34.02
2019-02-28T20:56:43.012Z,33.99
2019-02-28T20:59:46.598Z,33.96
2019-02-28T21:02:51.244Z,33.99
2019-02-28T21:05:54.823Z,33.98
2019-02-28T21:08:59.383Z,34.01
2019-02-28T21:12:02.856Z,33.98
2019-02-28T21:15:07.975Z,34.00
2019-02-28T21:18:11.396Z,33.89
2019-02-28T21:21:16.014Z,33.80
2019-02-28T21:24:19.527Z,33.79
2019-02-28T21:27:23.026Z,33.72
2019-02-28T21:30:26.443Z,33.70
2019-02-28T21:33:29.937Z,33.63
2019-02-28T21:36:33.753Z,33.60
2019-02-28T21:39:37.226Z,33.57
2019-02-28T21:42:40.727Z,33.52
2019-02-28T21:45:44.233Z,33.56
2019-02-28T21:48:47.693Z,33.52
2019-02-28T21:51:51.285Z,33.53
2019-02-28T21:54:54.746Z,33.52
2019-02-28T21:57:58.197Z,33.49
2019-02-28T22:01:01.723Z,33.48
2019-02-28T22:04:05.224Z,33.51
2019-02-28T22:07:08.736Z,33.45
2019-02-28T22:10:12.789Z,33.47
2019-02-28T22:13:16.706Z,33.43
2019-02-28T22:16:20.171Z,33.47
2019-02-28T22:19:26.671Z,33.44
2019-02-28T22:22:31.161Z,33.46
2019-02-28T22:25:34.685Z,33.43
2019-02-28T22:28:38.170Z,33.39
2019-02-28T22:31:51.898Z,33.42
2019-02-28T22:35:03.494Z,33.44
2019-02-28T22:38:07.014Z,33.40
2019-02-28T22:41:10.537Z,33.40
2019-02-28T22:44:14.044Z,33.40
2019-02-28T22:47:17.517Z,33.37
2019-02-28T22:50:21.000Z,33.37
2019-02-28T22:53:25.617Z,33.40
2019-02-28T22:56:29.128Z,33.36
2019-02-28T22:59:32.632Z,33.38
2019-02-28T23:02:36.129Z,33.41
2019-02-28T23:05:40.666Z,33.40
2019-02-28T23:08:45.182Z,33.40
2019-02-28T23:11:48.685Z,33.41
2019-02-28T23:14:53.211Z,33.39
2019-02-28T23:17:56.709Z,33.41
2019-02-28T23:21:00.197Z,33.36
2019-02-28T23:24:03.703Z,33.38
2019-02-28T23:27:12.936Z,33.38
2019-02-28T23:30:30.955Z,33.37
2019-02-28T23:33:34.484Z,33.40
2019-02-28T23:36:40.018Z,33.38
2019-02-28T23:39:43.527Z,33.38
2019-02-28T23:42:47.041Z,33.36
2019-02-28T23:45:51.611Z,33.38
2019-02-28T23:48:55.066Z,33.36
2019-02-28T23:51:59.637Z,33.35
2019-02-28T23:55:03.086Z,33.35
2019-02-28T23:58:06.584Z,33.38
